createdAt,value
2018-06-09T00:00:14.790Z,26.70
2018-06-09T00:01:14.948Z,26.00
2018-06-09T00:02:15.104Z,25.60
2018-06-09T00:03:15.260Z,26.30
2018-06-09T00:04:15.418Z,25.60
2018-06-09T00:05:15.613Z,26.70
2018-06-09T00:06:15.755Z,25.50
2018-06-09T00:07:15.909Z,26.70
2018-06-09T00:08:16.068Z,26.00
2018-06-09T00:09:16.226Z,26.30
2018-06-09T00:10:16.382Z,25.50
2018-06-09T00:11:16.539Z,27.10
2018-06-09T00:12:16.697Z,26.90
2018-06-09T00:13:16.851Z,26.80
2018-06-09T00:14:17.010Z,27.20
2018-06-09T00:15:17.166Z,27.20
2018-06-09T00:16:17.323Z,28.10
2018-06-09T00:17:17.482Z,29.10
2018-06-09T00:18:17.639Z,27.90
2018-06-09T00:19:17.794Z,26.90
2018-06-09T00:20:17.954Z,28.40
2018-06-09T00:21:18.105Z,30.10
2018-06-09T00:22:18.265Z,28.80
2018-06-09T00:23:18.420Z,30.20
2018-06-09T00:24:18.578Z,30.10
2018-06-09T00:25:18.734Z,29.60
2018-06-09T00:26:18.892Z,28.70
2018-06-09T00:27:19.045Z,28.20
2018-06-09T00:28:19.205Z,28.20
2018-06-09T00:29:19.359Z,27.20
2018-06-09T00:30:19.515Z,25.70
2018-06-09T00:31:19.672Z,25.30
2018-06-09T00:32:19.830Z,24.90
2018-06-09T00:33:19.988Z,25.00
2018-06-09T00:34:20.142Z,24.70
2018-06-09T00:35:20.304Z,25.00
2018-06-09T00:36:20.455Z,25.70
2018-06-09T00:37:20.612Z,25.50
2018-06-09T00:38:20.770Z,26.50
2018-06-09T00:39:20.925Z,24.60
2018-06-09T00:40:21.080Z,25.70
2018-06-09T00:41:21.237Z,25.50
2018-06-09T00:42:21.391Z,26.10
2018-06-09T00:43:21.549Z,27.10
2018-06-09T00:44:21.706Z,27.00
2018-06-09T00:45:21.862Z,27.20
2018-06-09T00:46:22.018Z,28.10
2018-06-09T00:47:22.174Z,28.00
2018-06-09T00:48:22.329Z,27.50
2018-06-09T00:49:22.485Z,28.10
2018-06-09T00:50:22.642Z,28.60
2018-06-09T00:51:22.804Z,27.20
2018-06-09T00:52:22.950Z,27.90
2018-06-09T00:53:23.112Z,29.10
2018-06-09T00:54:23.263Z,30.00
2018-06-09T00:55:23.419Z,29.70
2018-06-09T00:56:23.575Z,29.60
2018-06-09T00:57:23.731Z,28.80
2018-06-09T00:58:23.889Z,30.50
2018-06-09T00:59:24.044Z,30.30
2018-06-09T01:00:24.199Z,28.90
2018-06-09T01:01:24.354Z,29.70
2018-06-09T01:02:24.510Z,30.10
2018-06-09T01:03:24.667Z,29.80
2018-06-09T01:04:24.823Z,29.30
2018-06-09T01:05:24.982Z,29.00
2018-06-09T01:06:25.136Z,28.80
2018-06-09T01:07:25.292Z,29.70
2018-06-09T01:08:25.447Z,28.10
2018-06-09T01:09:25.606Z,27.40
2018-06-09T01:10:25.759Z,27.10
2018-06-09T01:11:25.916Z,28.20
2018-06-09T01:12:26.071Z,27.40
2018-06-09T01:13:26.228Z,26.90
2018-06-09T01:14:26.386Z,27.40
2018-06-09T01:15:26.545Z,28.40
2018-06-09T01:16:26.698Z,28.00
2018-06-09T01:17:26.856Z,28.00
2018-06-09T01:18:27.013Z,27.00
2018-06-09T01:19:27.168Z,27.40
2018-06-09T01:20:27.321Z,28.00
2018-06-09T01:21:27.477Z,27.00
2018-06-09T01:22:27.633Z,27.30
2018-06-09T01:23:27.793Z,27.80
2018-06-09T01:24:27.949Z,27.20
2018-06-09T01:25:28.104Z,28.00
2018-06-09T01:26:28.260Z,26.50
2018-06-09T01:27:28.414Z,27.80
2018-06-09T01:28:28.571Z,27.10
2018-06-09T01:29:28.732Z,27.70
2018-06-09T01:30:28.883Z,26.10
2018-06-09T01:31:29.036Z,26.50
2018-06-09T01:32:29.191Z,26.20
2018-06-09T01:33:29.351Z,26.40
2018-06-09T01:34:29.509Z,25.80
2018-06-09T01:35:29.662Z,25.90
2018-06-09T01:36:29.815Z,26.70
2018-06-09T01:37:29.970Z,27.00
2018-06-09T01:38:30.125Z,26.90
2018-06-09T01:39:30.280Z,26.30
2018-06-09T01:40:30.435Z,25.30
2018-06-09T01:41:30.595Z,25.80
2018-06-09T01:42:30.748Z,27.80
2018-06-09T01:43:30.904Z,28.00
2018-06-09T01:44:31.058Z,28.30
2018-06-09T01:45:31.214Z,28.50
2018-06-09T01:46:31.371Z,29.00
2018-06-09T01:47:31.527Z,27.70
2018-06-09T01:48:31.680Z,27.10
2018-06-09T01:49:31.840Z,26.60
2018-06-09T01:50:32.003Z,25.90
2018-06-09T01:51:32.152Z,25.80
2018-06-09T01:52:32.310Z,26.80
2018-06-09T01:53:32.461Z,27.00
2018-06-09T01:54:32.620Z,26.40
2018-06-09T01:55:32.775Z,27.60
2018-06-09T01:56:32.929Z,25.70
2018-06-09T01:57:33.085Z,27.10
2018-06-09T01:58:33.239Z,27.20
2018-06-09T01:59:33.396Z,26.80
2018-06-09T02:00:33.551Z,27.30
2018-06-09T02:01:33.708Z,28.00
2018-06-09T02:02:33.864Z,27.60
2018-06-09T02:03:34.023Z,27.90
2018-06-09T02:04:34.176Z,26.60
2018-06-09T02:05:34.331Z,26.90
2018-06-09T02:06:34.489Z,27.20
2018-06-09T02:07:34.644Z,26.70
2018-06-09T02:08:34.799Z,26.80
2018-06-09T02:09:34.955Z,26.40
2018-06-09T02:10:35.112Z,27.50
2018-06-09T02:11:35.273Z,28.60
2018-06-09T02:12:35.422Z,28.90
2018-06-09T02:13:35.575Z,29.80
2018-06-09T02:14:35.729Z,29.10
2018-06-09T02:15:35.886Z,29.10
2018-06-09T02:16:36.040Z,28.90
2018-06-09T02:17:36.196Z,28.60
2018-06-09T02:18:36.352Z,28.40
2018-06-09T02:19:36.511Z,28.20
2018-06-09T02:20:36.666Z,28.80
2018-06-09T02:21:36.823Z,29.20
2018-06-09T02:22:36.977Z,28.50
2018-06-09T02:23:37.135Z,28.20
2018-06-09T02:24:37.289Z,28.70
2018-06-09T02:25:37.443Z,28.60
2018-06-09T02:26:37.600Z,28.50
2018-06-09T02:27:37.757Z,28.50
2018-06-09T02:28:37.909Z,28.30
2018-06-09T02:29:38.074Z,28.30
2018-06-09T02:30:38.260Z,26.70
2018-06-09T02:31:38.379Z,25.50
2018-06-09T02:32:38.533Z,26.50
2018-06-09T02:33:38.689Z,26.10
2018-06-09T02:34:38.846Z,25.60
2018-06-09T02:35:39.001Z,25.20
2018-06-09T02:36:39.157Z,26.40
2018-06-09T02:37:39.312Z,26.90
2018-06-09T02:38:39.470Z,27.30
2018-06-09T02:39:39.624Z,26.80
2018-06-09T02:40:39.781Z,27.50
2018-06-09T02:41:39.941Z,27.70
2018-06-09T02:42:40.089Z,26.40
2018-06-09T02:43:40.250Z,26.80
2018-06-09T02:44:40.403Z,27.80
2018-06-09T02:45:40.563Z,27.70
2018-06-09T02:46:40.717Z,27.70
2018-06-09T02:47:40.873Z,27.40
2018-06-09T02:48:41.028Z,30.10
2018-06-09T02:49:41.183Z,26.50
2018-06-09T02:50:41.342Z,27.80
2018-06-09T02:51:41.496Z,26.90
2018-06-09T02:52:41.652Z,26.70
2018-06-09T02:53:41.808Z,25.70
2018-06-09T02:54:41.964Z,26.80
2018-06-09T02:55:42.117Z,26.30
2018-06-09T02:56:42.273Z,25.20
2018-06-09T02:57:42.429Z,26.30
2018-06-09T02:58:42.587Z,26.10
2018-06-09T02:59:42.739Z,27.00
2018-06-09T03:00:42.898Z,26.40
2018-06-09T03:01:43.053Z,25.10
2018-06-09T03:02:43.205Z,25.00
2018-06-09T03:03:43.362Z,26.00
2018-06-09T03:04:43.517Z,26.60
2018-06-09T03:05:43.674Z,25.40
2018-06-09T03:06:43.835Z,24.60
2018-06-09T03:07:43.985Z,25.50
2018-06-09T03:08:44.143Z,24.70
2018-06-09T03:09:44.298Z,25.20
2018-06-09T03:10:44.457Z,25.50
2018-06-09T03:11:44.616Z,24.30
2018-06-09T03:12:44.779Z,24.10
2018-06-09T03:13:44.935Z,24.90
2018-06-09T03:14:45.083Z,25.70
2018-06-09T03:15:45.242Z,25.20
2018-06-09T03:16:45.395Z,26.40
2018-06-09T03:17:45.553Z,25.00
2018-06-09T03:18:45.709Z,23.90
2018-06-09T03:19:45.864Z,24.40
2018-06-09T03:20:46.015Z,24.20
2018-06-09T03:21:46.183Z,25.30
2018-06-09T03:22:46.337Z,26.80
2018-06-09T03:23:46.493Z,27.80
2018-06-09T03:24:46.651Z,29.60
2018-06-09T03:25:46.805Z,29.10
2018-06-09T03:26:46.961Z,25.60
2018-06-09T03:27:47.118Z,25.10
2018-06-09T03:28:47.272Z,25.70
2018-06-09T03:29:47.426Z,25.60
2018-06-09T03:30:47.588Z,25.70
2018-06-09T03:31:47.733Z,26.50
2018-06-09T03:32:47.889Z,27.10
2018-06-09T03:33:48.042Z,27.40
2018-06-09T03:34:48.199Z,26.50
2018-06-09T03:35:48.358Z,26.80
2018-06-09T03:36:48.513Z,25.20
2018-06-09T03:37:48.670Z,25.10
2018-06-09T03:38:48.826Z,25.00
2018-06-09T03:39:48.981Z,24.80
2018-06-09T03:40:49.136Z,25.70
2018-06-09T03:41:49.292Z,25.40
2018-06-09T03:42:49.447Z,25.10
2018-06-09T03:43:49.603Z,24.70
2018-06-09T03:44:49.758Z,24.90
2018-06-09T03:45:49.915Z,23.40
2018-06-09T03:46:50.077Z,25.90
2018-06-09T03:47:50.224Z,24.70
2018-06-09T03:48:50.407Z,24.70
2018-06-09T03:49:50.537Z,23.60
2018-06-09T03:50:50.695Z,25.80
2018-06-09T03:51:50.856Z,25.70
2018-06-09T03:52:51.005Z,25.80
2018-06-09T03:53:51.162Z,25.40
2018-06-09T03:54:51.318Z,23.80
2018-06-09T03:55:51.474Z,27.10
2018-06-09T03:56:51.634Z,27.40
2018-06-09T03:57:51.786Z,27.60
2018-06-09T03:58:51.941Z,27.40
2018-06-09T03:59:52.102Z,27.30
2018-06-09T04:00:52.257Z,26.60
2018-06-09T04:01:52.413Z,26.70
2018-06-09T04:02:52.571Z,28.10
2018-06-09T04:03:52.728Z,27.80
2018-06-09T04:04:52.882Z,27.30
2018-06-09T04:05:53.041Z,28.10
2018-06-09T04:06:53.199Z,28.80
2018-06-09T04:07:53.355Z,25.10
2018-06-09T04:08:53.521Z,25.30
2018-06-09T04:09:53.670Z,27.50
2018-06-09T04:10:53.824Z,28.00
2018-06-09T04:11:53.981Z,27.30
2018-06-09T04:12:54.136Z,26.20
2018-06-09T04:13:54.293Z,26.40
2018-06-09T04:14:54.451Z,26.30
2018-06-09T04:15:54.606Z,26.30
2018-06-09T04:16:54.762Z,25.10
2018-06-09T04:17:54.919Z,26.00
2018-06-09T04:18:55.075Z,26.80
2018-06-09T04:19:55.230Z,27.90
2018-06-09T04:20:55.390Z,27.00
2018-06-09T04:21:55.543Z,28.00
2018-06-09T04:22:55.700Z,26.80
2018-06-09T04:23:55.856Z,26.70
2018-06-09T04:24:56.011Z,27.20
2018-06-09T04:25:56.171Z,25.60
2018-06-09T04:26:56.327Z,26.00
2018-06-09T04:27:56.485Z,26.50
2018-06-09T04:28:56.642Z,26.70
2018-06-09T04:29:56.803Z,24.50
2018-06-09T04:30:56.954Z,26.10
2018-06-09T04:31:57.112Z,26.00
2018-06-09T04:32:57.268Z,26.10
2018-06-09T04:33:57.431Z,27.40
2018-06-09T04:34:57.582Z,26.90
2018-06-09T04:35:57.739Z,26.90
2018-06-09T04:36:57.897Z,27.90
2018-06-09T04:37:58.055Z,28.20
2018-06-09T04:38:58.216Z,27.40
2018-06-09T04:39:58.401Z,27.20
2018-06-09T04:40:58.537Z,26.80
2018-06-09T04:41:58.697Z,26.20
2018-06-09T04:42:58.854Z,26.10
2018-06-09T04:43:59.010Z,26.50
2018-06-09T04:44:59.168Z,25.60
2018-06-09T04:45:59.371Z,26.40
2018-06-09T04:46:59.484Z,27.60
2018-06-09T04:47:59.663Z,25.80
2018-06-09T04:48:59.819Z,26.70
2018-06-09T04:49:59.979Z,26.30
2018-06-09T04:51:00.134Z,26.70
2018-06-09T04:52:00.295Z,26.70
2018-06-09T04:53:00.452Z,26.90
2018-06-09T04:54:00.608Z,27.30
2018-06-09T04:55:00.764Z,26.80
2018-06-09T04:56:00.922Z,27.50
2018-06-09T04:57:01.086Z,27.20
2018-06-09T04:58:01.234Z,27.00
2018-06-09T04:59:01.389Z,27.40
2018-06-09T05:00:01.545Z,26.90
2018-06-09T05:01:01.705Z,27.40
2018-06-09T05:02:01.863Z,27.20
2018-06-09T05:03:02.021Z,26.40
2018-06-09T05:04:02.177Z,27.20
2018-06-09T05:05:02.338Z,26.20
2018-06-09T05:06:02.495Z,26.00
2018-06-09T05:07:02.651Z,25.10
2018-06-09T05:08:02.808Z,25.80
2018-06-09T05:09:02.963Z,25.10
2018-06-09T05:10:03.119Z,24.90
2018-06-09T05:11:03.275Z,23.80
2018-06-09T05:12:03.437Z,25.00
2018-06-09T05:13:03.664Z,24.70
2018-06-09T05:14:03.752Z,23.10
2018-06-09T05:15:03.909Z,24.20
2018-06-09T05:16:04.063Z,24.10
2018-06-09T05:17:04.222Z,23.90
2018-06-09T05:18:04.381Z,24.70
2018-06-09T05:19:04.534Z,24.10
2018-06-09T05:20:04.696Z,24.10
2018-06-09T05:21:04.849Z,24.00
2018-06-09T05:22:05.007Z,24.20
2018-06-09T05:23:05.162Z,25.10
2018-06-09T05:24:05.326Z,23.90
2018-06-09T05:25:05.484Z,23.10
2018-06-09T05:26:05.642Z,24.00
2018-06-09T05:27:05.799Z,22.50
2018-06-09T05:28:05.968Z,23.20
2018-06-09T05:29:06.112Z,23.20
2018-06-09T05:30:06.272Z,23.30
2018-06-09T05:31:06.428Z,22.30
2018-06-09T05:32:06.585Z,21.70
2018-06-09T05:33:06.742Z,22.90
2018-06-09T05:34:06.901Z,21.80
2018-06-09T05:35:07.058Z,22.30
2018-06-09T05:36:07.215Z,21.80
2018-06-09T05:37:07.375Z,22.00
2018-06-09T05:38:07.530Z,21.60
2018-06-09T05:39:07.688Z,21.70
2018-06-09T05:40:07.848Z,21.30
2018-06-09T05:41:08.004Z,21.40
2018-06-09T05:42:08.162Z,21.30
2018-06-09T05:43:08.320Z,21.00
2018-06-09T05:44:08.512Z,21.80
2018-06-09T05:45:08.669Z,21.70
2018-06-09T05:46:08.824Z,22.00
2018-06-09T05:47:08.983Z,20.70
2018-06-09T05:48:09.141Z,21.80
2018-06-09T05:49:09.299Z,22.40
2018-06-09T05:50:09.458Z,22.10
2018-06-09T05:51:09.614Z,20.40
2018-06-09T05:52:09.774Z,21.50
2018-06-09T05:53:09.932Z,21.20
2018-06-09T05:54:10.091Z,20.80
2018-06-09T05:55:10.248Z,20.80
2018-06-09T05:56:10.407Z,20.60
2018-06-09T05:57:10.564Z,21.30
2018-06-09T05:58:10.723Z,20.50
2018-06-09T05:59:10.884Z,20.80
2018-06-09T06:00:11.040Z,20.80
2018-06-09T06:01:11.196Z,20.60
2018-06-09T06:02:11.353Z,21.40
2018-06-09T06:03:11.512Z,20.80
2018-06-09T06:04:11.669Z,20.90
2018-06-09T06:05:11.827Z,20.80
2018-06-09T06:06:11.984Z,21.00
2018-06-09T06:07:12.143Z,20.70
2018-06-09T06:08:12.300Z,20.90
2018-06-09T06:09:12.460Z,21.70
2018-06-09T06:10:12.618Z,22.20
2018-06-09T06:11:12.776Z,21.00
2018-06-09T06:12:12.933Z,20.20
2018-06-09T06:13:13.091Z,19.90
2018-06-09T06:14:13.249Z,19.60
2018-06-09T06:15:13.407Z,19.40
2018-06-09T06:16:13.570Z,19.40
2018-06-09T06:17:13.724Z,19.70
2018-06-09T06:18:13.883Z,19.80
2018-06-09T06:19:14.040Z,20.00
2018-06-09T06:20:14.200Z,19.00
2018-06-09T06:21:14.395Z,19.20
2018-06-09T06:22:14.556Z,18.70
2018-06-09T06:23:14.714Z,19.70
2018-06-09T06:24:14.870Z,18.70
2018-06-09T06:25:15.028Z,19.10
2018-06-09T06:26:15.187Z,19.90
2018-06-09T06:27:15.344Z,19.60
2018-06-09T06:28:15.505Z,18.90
2018-06-09T06:29:15.662Z,18.20
2018-06-09T06:30:15.821Z,17.80
2018-06-09T06:31:15.980Z,17.50
2018-06-09T06:32:16.140Z,16.90
2018-06-09T06:33:16.296Z,17.40
2018-06-09T06:34:16.456Z,17.00
2018-06-09T06:35:16.615Z,17.40
2018-06-09T06:36:16.773Z,18.00
2018-06-09T06:37:16.933Z,16.50
2018-06-09T06:38:17.092Z,16.20
2018-06-09T06:39:17.248Z,17.10
2018-06-09T06:40:17.408Z,16.20
2018-06-09T06:41:17.567Z,15.90
2018-06-09T06:42:17.730Z,15.70
2018-06-09T06:43:17.886Z,16.20
2018-06-09T06:44:18.047Z,15.30
2018-06-09T06:45:18.205Z,15.20
2018-06-09T06:46:18.366Z,14.80
2018-06-09T06:47:18.571Z,15.30
2018-06-09T06:48:18.684Z,15.60
2018-06-09T06:49:18.847Z,15.50
2018-06-09T06:50:19.012Z,15.20
2018-06-09T06:51:19.167Z,14.70
2018-06-09T06:52:19.327Z,14.60
2018-06-09T06:53:19.489Z,15.00
2018-06-09T06:54:19.649Z,14.80
2018-06-09T06:55:19.809Z,15.20
2018-06-09T06:56:19.968Z,15.20
2018-06-09T06:57:20.128Z,14.90
2018-06-09T06:58:20.286Z,14.50
2018-06-09T06:59:20.449Z,13.80
2018-06-09T07:00:20.607Z,14.60
2018-06-09T07:01:20.771Z,14.90
2018-06-09T07:02:20.929Z,14.50
2018-06-09T07:03:21.088Z,14.40
2018-06-09T07:04:21.251Z,14.50
2018-06-09T07:05:21.410Z,14.00
2018-06-09T07:06:21.571Z,14.00
2018-06-09T07:07:21.761Z,13.40
2018-06-09T07:08:21.906Z,13.20
2018-06-09T07:09:22.080Z,12.50
2018-06-09T07:10:22.226Z,12.30
2018-06-09T07:11:22.388Z,12.40
2018-06-09T07:12:22.546Z,12.60
2018-06-09T07:13:22.755Z,12.40
2018-06-09T07:14:22.869Z,13.00
2018-06-09T07:15:23.029Z,12.10
2018-06-09T07:16:23.191Z,12.20
2018-06-09T07:17:23.353Z,12.00
2018-06-09T07:18:23.512Z,12.00
2018-06-09T07:19:23.674Z,12.20
2018-06-09T07:20:23.832Z,11.60
2018-06-09T07:21:23.995Z,10.70
2018-06-09T07:22:24.160Z,10.60
2018-06-09T07:23:24.315Z,10.50
2018-06-09T07:24:24.479Z,10.20
2018-06-09T07:25:24.640Z,10.70
2018-06-09T07:26:24.801Z,10.60
2018-06-09T07:27:24.961Z,9.90
2018-06-09T07:28:25.120Z,9.50
2018-06-09T07:29:25.280Z,10.30
2018-06-09T07:30:25.441Z,9.90
2018-06-09T07:31:25.600Z,10.10
2018-06-09T07:32:25.764Z,10.20
2018-06-09T07:33:25.922Z,10.40
2018-06-09T07:34:26.083Z,10.20
2018-06-09T07:35:26.246Z,10.10
2018-06-09T07:36:26.403Z,10.60
2018-06-09T07:37:26.564Z,10.70
2018-06-09T07:38:26.725Z,12.00
2018-06-09T07:39:26.886Z,12.20
2018-06-09T07:40:27.046Z,12.70
2018-06-09T07:41:27.210Z,12.30
2018-06-09T07:42:27.370Z,10.90
2018-06-09T07:43:27.530Z,10.50
2018-06-09T07:44:27.691Z,11.10
2018-06-09T07:45:27.851Z,10.40
2018-06-09T07:46:28.011Z,10.00
2018-06-09T07:47:28.172Z,9.90
2018-06-09T07:48:28.338Z,10.80
2018-06-09T07:49:28.493Z,9.60
2018-06-09T07:50:28.692Z,9.70
2018-06-09T07:51:28.819Z,10.10
2018-06-09T07:52:28.996Z,9.00
2018-06-09T07:53:29.156Z,10.60
2018-06-09T07:54:29.316Z,10.20
2018-06-09T07:55:29.479Z,9.50
2018-06-09T07:56:29.640Z,9.80
2018-06-09T07:57:29.799Z,9.20
2018-06-09T07:58:29.962Z,9.10
2018-06-09T07:59:30.128Z,9.00
2018-06-09T08:00:30.282Z,8.40
2018-06-09T08:01:30.441Z,8.20
2018-06-09T08:02:30.603Z,8.30
2018-06-09T08:03:30.764Z,9.10
2018-06-09T08:04:30.926Z,8.50
2018-06-09T08:05:31.086Z,8.70
2018-06-09T08:06:31.248Z,8.70
2018-06-09T08:07:31.407Z,9.50
2018-06-09T08:08:31.567Z,9.50
2018-06-09T08:09:31.731Z,9.30
2018-06-09T08:10:31.888Z,9.00
2018-06-09T08:11:32.051Z,8.70
2018-06-09T08:12:32.212Z,8.80
2018-06-09T08:13:32.372Z,9.10
2018-06-09T08:14:32.538Z,9.10
2018-06-09T08:15:32.697Z,9.00
2018-06-09T08:16:32.857Z,9.10
2018-06-09T08:17:33.020Z,8.50
2018-06-09T08:18:33.184Z,8.60
2018-06-09T08:19:33.347Z,8.40
2018-06-09T08:20:33.508Z,8.00
2018-06-09T08:21:33.670Z,8.60
2018-06-09T08:22:33.833Z,8.90
2018-06-09T08:23:34.001Z,8.70
2018-06-09T08:24:34.160Z,7.80
2018-06-09T08:25:34.322Z,8.50
2018-06-09T08:26:34.482Z,8.40
2018-06-09T08:27:34.644Z,8.30
2018-06-09T08:28:34.805Z,7.80
2018-06-09T08:29:34.967Z,7.70
2018-06-09T08:30:35.128Z,7.70
2018-06-09T08:31:35.293Z,8.30
2018-06-09T08:32:35.468Z,8.00
2018-06-09T08:33:35.611Z,8.00
2018-06-09T08:34:35.786Z,7.50
2018-06-09T08:35:35.929Z,7.60
2018-06-09T08:36:36.130Z,7.30
2018-06-09T08:37:36.257Z,7.40
2018-06-09T08:38:36.420Z,7.30
2018-06-09T08:39:36.580Z,7.60
2018-06-09T08:40:36.744Z,7.60
2018-06-09T08:41:36.904Z,7.50
2018-06-09T08:42:37.067Z,7.20
2018-06-09T08:43:37.235Z,7.50
2018-06-09T08:44:37.396Z,7.80
2018-06-09T08:45:37.557Z,7.60
2018-06-09T08:46:37.719Z,7.20
2018-06-09T08:47:37.886Z,7.40
2018-06-09T08:48:38.048Z,7.20
2018-06-09T08:49:38.214Z,7.10
2018-06-09T08:50:38.368Z,7.20
2018-06-09T08:51:38.544Z,6.80
2018-06-09T08:52:38.704Z,7.60
2018-06-09T08:53:38.868Z,7.70
2018-06-09T08:54:39.108Z,7.30
2018-06-09T08:55:39.191Z,7.30
2018-06-09T08:56:39.352Z,7.50
2018-06-09T08:57:39.513Z,7.10
2018-06-09T08:58:39.677Z,6.60
2018-06-09T08:59:39.840Z,7.40
2018-06-09T09:00:40.001Z,7.30
2018-06-09T09:01:40.169Z,6.60
2018-06-09T09:02:40.355Z,7.70
2018-06-09T09:03:40.526Z,6.80
2018-06-09T09:04:40.687Z,7.30
2018-06-09T09:05:40.851Z,7.10
2018-06-09T09:06:41.011Z,7.00
2018-06-09T09:07:41.176Z,6.80
2018-06-09T09:08:41.339Z,7.10
2018-06-09T09:09:41.501Z,6.60
2018-06-09T09:10:41.667Z,7.20
2018-06-09T09:11:41.830Z,7.30
2018-06-09T09:12:41.994Z,7.60
2018-06-09T09:13:42.159Z,7.90
2018-06-09T09:14:42.321Z,7.80
2018-06-09T09:15:42.489Z,7.20
2018-06-09T09:16:42.649Z,7.00
2018-06-09T09:17:42.814Z,7.80
2018-06-09T09:18:42.977Z,7.20
2018-06-09T09:19:43.139Z,6.70
2018-06-09T09:20:43.303Z,7.10
2018-06-09T09:21:43.466Z,7.10
2018-06-09T09:22:43.632Z,8.00
2018-06-09T09:23:43.793Z,7.80
2018-06-09T09:24:43.959Z,7.70
2018-06-09T09:25:44.124Z,7.40
2018-06-09T09:26:44.288Z,7.60
2018-06-09T09:27:44.452Z,7.60
2018-06-09T09:28:44.616Z,7.50
2018-06-09T09:29:44.781Z,7.50
2018-06-09T09:30:44.944Z,6.70
2018-06-09T09:31:45.108Z,7.00
2018-06-09T09:32:45.271Z,6.80
2018-06-09T09:33:45.461Z,7.50
2018-06-09T09:34:45.600Z,7.60
2018-06-09T09:35:45.766Z,7.40
2018-06-09T09:36:45.930Z,7.50
2018-06-09T09:37:46.095Z,6.90
2018-06-09T09:38:46.257Z,7.30
2018-06-09T09:39:46.427Z,6.70
2018-06-09T09:40:46.588Z,6.90
2018-06-09T09:41:46.760Z,7.10
2018-06-09T09:42:46.927Z,6.70
2018-06-09T09:43:47.086Z,6.70
2018-06-09T09:44:47.253Z,7.20
2018-06-09T09:45:47.414Z,6.30
2018-06-09T09:46:47.580Z,6.80
2018-06-09T09:47:47.731Z,7.10
2018-06-09T09:48:47.914Z,6.50
2018-06-09T09:49:48.083Z,7.20
2018-06-09T09:50:48.244Z,7.30
2018-06-09T09:51:48.407Z,6.60
2018-06-09T09:52:48.604Z,6.40
2018-06-09T09:53:48.772Z,6.80
2018-06-09T09:54:48.959Z,7.10
2018-06-09T09:55:49.093Z,6.90
2018-06-09T09:56:49.258Z,6.80
2018-06-09T09:57:49.422Z,7.00
2018-06-09T09:58:49.586Z,6.70
2018-06-09T09:59:49.748Z,6.60
2018-06-09T10:00:49.912Z,6.40
2018-06-09T10:01:50.081Z,6.70
2018-06-09T10:02:50.241Z,6.80
2018-06-09T10:03:50.406Z,6.50
2018-06-09T10:04:50.574Z,6.70
2018-06-09T10:05:50.735Z,7.20
2018-06-09T10:06:50.904Z,8.70
2018-06-09T10:07:51.062Z,7.20
2018-06-09T10:08:51.223Z,7.00
2018-06-09T10:09:51.392Z,7.00
2018-06-09T10:10:51.556Z,7.20
2018-06-09T10:11:51.717Z,7.20
2018-06-09T10:12:51.882Z,7.30
2018-06-09T10:13:52.048Z,7.50
2018-06-09T10:14:52.211Z,7.80
2018-06-09T10:15:52.381Z,7.40
2018-06-09T10:16:52.542Z,7.00
2018-06-09T10:17:52.705Z,7.20
2018-06-09T10:18:52.870Z,6.90
2018-06-09T10:19:53.036Z,7.10
2018-06-09T10:20:53.202Z,6.70
2018-06-09T10:21:53.364Z,6.80
2018-06-09T10:22:53.528Z,6.90
2018-06-09T10:23:53.697Z,6.20
2018-06-09T10:24:53.862Z,7.50
2018-06-09T10:25:54.024Z,7.60
2018-06-09T10:26:54.193Z,7.10
2018-06-09T10:27:54.356Z,6.70
2018-06-09T10:28:54.526Z,7.00
2018-06-09T10:29:54.686Z,6.80
2018-06-09T10:30:54.846Z,6.50
2018-06-09T10:31:55.014Z,6.40
2018-06-09T10:32:55.178Z,6.50
2018-06-09T10:33:55.343Z,7.20
2018-06-09T10:34:55.507Z,6.90
2018-06-09T10:35:55.672Z,7.00
2018-06-09T10:36:55.837Z,6.60
2018-06-09T10:37:56.003Z,6.60
2018-06-09T10:38:56.167Z,6.70
2018-06-09T10:39:56.332Z,6.90
2018-06-09T10:40:56.499Z,7.00
2018-06-09T10:41:56.664Z,6.10
2018-06-09T10:42:56.829Z,6.80
2018-06-09T10:43:56.993Z,6.40
2018-06-09T10:44:57.159Z,6.90
2018-06-09T10:45:57.324Z,6.70
2018-06-09T10:46:57.489Z,6.90
2018-06-09T10:47:57.657Z,7.00
2018-06-09T10:48:57.821Z,7.00
2018-06-09T10:49:57.983Z,6.60
2018-06-09T10:50:58.151Z,6.60
2018-06-09T10:51:58.313Z,6.10
2018-06-09T10:52:58.480Z,7.00
2018-06-09T10:53:58.643Z,7.10
2018-06-09T10:54:58.811Z,6.90
2018-06-09T10:55:58.976Z,6.90
2018-06-09T10:56:59.142Z,6.80
2018-06-09T10:57:59.308Z,6.90
2018-06-09T10:58:59.470Z,6.50
2018-06-09T10:59:59.634Z,6.00
2018-06-09T11:00:59.802Z,6.90
2018-06-09T11:01:59.966Z,6.90
2018-06-09T11:03:00.133Z,6.40
2018-06-09T11:04:00.302Z,6.70
2018-06-09T11:05:00.463Z,6.40
2018-06-09T11:06:00.629Z,6.50
2018-06-09T11:07:00.794Z,6.90
2018-06-09T11:08:00.961Z,6.90
2018-06-09T11:09:01.128Z,6.40
2018-06-09T11:10:01.342Z,6.10
2018-06-09T11:11:01.457Z,6.30
2018-06-09T11:12:01.623Z,5.90
2018-06-09T11:13:01.790Z,6.20
2018-06-09T11:14:01.955Z,5.90
2018-06-09T11:15:02.121Z,5.90
2018-06-09T11:16:02.288Z,6.00
2018-06-09T11:17:02.451Z,6.10
2018-06-09T11:18:02.617Z,6.40
2018-06-09T11:19:02.783Z,6.70
2018-06-09T11:20:02.954Z,6.10
2018-06-09T11:21:03.116Z,6.30
2018-06-09T11:22:03.280Z,5.90
2018-06-09T11:23:03.447Z,6.60
2018-06-09T11:24:03.614Z,6.00
2018-06-09T11:25:03.780Z,6.00
2018-06-09T11:26:03.946Z,5.80
2018-06-09T11:27:04.110Z,6.20
2018-06-09T11:28:04.274Z,6.40
2018-06-09T11:29:04.440Z,6.10
2018-06-09T11:30:04.606Z,6.00
2018-06-09T11:31:04.771Z,5.90
2018-06-09T11:32:04.939Z,5.70
2018-06-09T11:33:05.105Z,5.70
2018-06-09T11:34:05.266Z,6.00
2018-06-09T11:35:05.430Z,5.60
2018-06-09T11:36:05.596Z,5.20
2018-06-09T11:37:05.767Z,5.80
2018-06-09T11:38:05.928Z,5.60
2018-06-09T11:39:06.092Z,5.70
2018-06-09T11:40:06.258Z,5.60
2018-06-09T11:41:06.423Z,6.00
2018-06-09T11:42:06.588Z,5.80
2018-06-09T11:43:06.753Z,5.60
2018-06-09T11:44:06.917Z,5.80
2018-06-09T11:45:07.087Z,5.30
2018-06-09T11:46:07.248Z,6.20
2018-06-09T11:47:07.416Z,6.00
2018-06-09T11:48:07.584Z,6.10
2018-06-09T11:49:07.749Z,5.70
2018-06-09T11:50:07.914Z,5.90
2018-06-09T11:51:08.083Z,6.10
2018-06-09T11:52:08.251Z,5.70
2018-06-09T11:53:08.415Z,5.90
2018-06-09T11:54:08.582Z,6.20
2018-06-09T11:55:08.779Z,6.20
2018-06-09T11:56:08.944Z,6.10
2018-06-09T11:57:09.114Z,5.80
2018-06-09T11:58:09.277Z,5.90
2018-06-09T11:59:09.444Z,5.90
2018-06-09T12:00:09.608Z,6.30
2018-06-09T12:01:09.776Z,5.90
2018-06-09T12:02:09.941Z,5.30
2018-06-09T12:03:10.105Z,6.10
2018-06-09T12:04:10.274Z,5.50
2018-06-09T12:05:10.440Z,6.80
2018-06-09T12:06:10.610Z,6.30
2018-06-09T12:07:10.775Z,5.60
2018-06-09T12:08:10.940Z,5.90
2018-06-09T12:09:11.107Z,5.80
2018-06-09T12:10:11.276Z,5.90
2018-06-09T12:11:11.442Z,6.00
2018-06-09T12:12:11.610Z,6.40
2018-06-09T12:13:11.777Z,6.60
2018-06-09T12:14:11.945Z,7.00
2018-06-09T12:15:12.110Z,6.90
2018-06-09T12:16:12.278Z,7.10
2018-06-09T12:17:12.484Z,6.10
2018-06-09T12:18:12.613Z,5.60
2018-06-09T12:19:12.779Z,6.00
2018-06-09T12:20:12.949Z,6.20
2018-06-09T12:21:13.115Z,5.50
2018-06-09T12:22:13.281Z,5.70
2018-06-09T12:23:13.447Z,6.20
2018-06-09T12:24:13.615Z,5.80
2018-06-09T12:25:13.782Z,5.80
2018-06-09T12:26:13.952Z,5.50
2018-06-09T12:27:14.113Z,5.70
2018-06-09T12:28:14.282Z,5.70
2018-06-09T12:29:14.447Z,6.00
2018-06-09T12:30:14.615Z,5.80
2018-06-09T12:31:14.785Z,5.60
2018-06-09T12:32:14.947Z,5.70
2018-06-09T12:33:15.116Z,5.80
2018-06-09T12:34:15.284Z,6.00
2018-06-09T12:35:15.453Z,6.10
2018-06-09T12:36:15.621Z,5.70
2018-06-09T12:37:15.786Z,5.90
2018-06-09T12:38:15.953Z,5.90
2018-06-09T12:39:16.129Z,5.40
2018-06-09T12:40:16.286Z,5.80
2018-06-09T12:41:16.455Z,5.90
2018-06-09T12:42:16.624Z,5.30
2018-06-09T12:43:16.786Z,5.80
2018-06-09T12:44:16.951Z,5.70
2018-06-09T12:45:17.124Z,6.60
2018-06-09T12:46:17.290Z,6.30
2018-06-09T12:47:17.459Z,6.60
2018-06-09T12:48:17.625Z,5.90
2018-06-09T12:49:17.793Z,5.90
2018-06-09T12:50:17.960Z,5.70
2018-06-09T12:51:18.126Z,6.00
2018-06-09T12:52:18.291Z,5.60
2018-06-09T12:53:18.461Z,6.00
2018-06-09T12:54:18.627Z,6.50
2018-06-09T12:55:18.793Z,6.90
2018-06-09T12:56:18.958Z,7.10
2018-06-09T12:57:19.126Z,7.00
2018-06-09T12:58:19.288Z,6.40
2018-06-09T12:59:19.458Z,6.60
2018-06-09T13:00:19.628Z,6.50
2018-06-09T13:01:19.794Z,6.00
2018-06-09T13:02:19.962Z,5.50
2018-06-09T13:03:20.130Z,5.40
2018-06-09T13:04:20.295Z,5.60